createdAt,value
2019-03-01T00:00:59.775Z,101086.54
2019-03-01T00:03:28.946Z,101087.14
2019-03-01T00:06:18.580Z,101078.95
2019-03-01T00:08:52.976Z,101080.50
2019-03-01T00:11:30.655Z,101077.36
2019-03-01T00:14:05.045Z,101076.32
2019-03-01T00:17:09.095Z,101078.13
2019-03-01T00:20:13.866Z,101072.19
2019-03-01T00:23:13.987Z,101071.31
2019-03-01T00:25:48.170Z,101064.36
2019-03-01T00:28:46.726Z,101048.23
2019-03-01T00:31:31.029Z,101066.59
2019-03-01T00:34:08.546Z,101069.36
2019-03-01T00:36:46.246Z,101064.91
2019-03-01T00:39:41.909Z,101058.55
2019-03-01T00:42:24.776Z,101052.57
2019-03-01T00:44:53.412Z,101050.08
2019-03-01T00:47:21.985Z,101046.87
2019-03-01T00:49:50.492Z,101049.20
2019-03-01T00:52:19.009Z,101049.13
2019-03-01T00:54:47.559Z,101050.31
2019-03-01T00:57:16.144Z,101045.76
2019-03-01T00:59:44.842Z,101037.62
2019-03-01T01:02:13.442Z,101037.30
2019-03-01T01:04:42.292Z,101031.95
2019-03-01T01:07:10.778Z,101032.92
2019-03-01T01:09:39.318Z,101024.50
2019-03-01T01:12:07.945Z,101024.47
2019-03-01T01:14:36.504Z,101026.73
2019-03-01T01:17:05.370Z,101023.05
2019-03-01T01:19:33.960Z,101022.42
2019-03-01T01:22:02.890Z,101019.32
2019-03-01T01:24:31.525Z,101017.16
2019-03-01T01:27:00.219Z,101016.68
2019-03-01T01:29:28.800Z,101015.88
2019-03-01T01:31:57.427Z,101012.74
2019-03-01T01:34:26.047Z,101012.74
2019-03-01T01:36:54.681Z,101007.74
2019-03-01T01:39:23.321Z,101003.64
2019-03-01T01:41:51.951Z,100999.61
2019-03-01T01:44:20.496Z,100997.20
2019-03-01T01:46:49.010Z,100991.36
2019-03-01T01:49:19.069Z,100994.32
2019-03-01T01:51:47.644Z,100986.80
2019-03-01T01:54:16.304Z,100983.61
2019-03-01T01:56:44.890Z,100987.55
2019-03-01T01:59:13.440Z,100979.53
2019-03-01T02:01:42.514Z,100968.61
2019-03-01T02:04:11.091Z,100977.05
2019-03-01T02:06:39.770Z,100974.59
2019-03-01T02:09:17.190Z,100972.94
2019-03-01T02:11:45.837Z,100979.89
2019-03-01T02:14:14.655Z,100970.95
2019-03-01T02:16:43.230Z,100983.16
2019-03-01T02:19:11.794Z,100978.40
2019-03-01T02:21:40.241Z,100982.84
2019-03-01T02:24:08.820Z,100976.73
2019-03-01T02:26:37.399Z,100972.00
2019-03-01T02:29:06.021Z,100971.62
2019-03-01T02:31:38.768Z,100966.19
2019-03-01T02:34:07.285Z,100962.63
2019-03-01T02:36:35.919Z,100966.33
2019-03-01T02:39:05.035Z,100957.25
2019-03-01T02:41:33.866Z,100962.99
2019-03-01T02:44:02.535Z,100958.69
2019-03-01T02:46:31.224Z,100957.95
2019-03-01T02:48:59.813Z,100957.88
2019-03-01T02:51:28.448Z,100956.45
2019-03-01T02:53:56.924Z,100953.02
2019-03-01T02:56:25.482Z,100950.87
2019-03-01T02:58:54.103Z,100950.24
2019-03-01T03:01:22.698Z,100942.84
2019-03-01T03:03:51.261Z,100944.12
2019-03-01T03:06:37.279Z,100945.23
2019-03-01T03:09:08.380Z,100939.26
2019-03-01T03:11:37.039Z,100940.89
2019-03-01T03:14:05.694Z,100941.55
2019-03-01T03:16:34.313Z,100938.34
2019-03-01T03:19:02.918Z,100934.83
2019-03-01T03:21:31.474Z,100930.21
2019-03-01T03:23:59.993Z,100934.29
2019-03-01T03:26:29.456Z,100934.35
2019-03-01T03:28:58.118Z,100937.34
2019-03-01T03:31:26.670Z,100930.12
2019-03-01T03:33:55.208Z,100928.17
2019-03-01T03:36:23.667Z,100934.31
2019-03-01T03:38:52.269Z,100937.76
2019-03-01T03:41:20.890Z,100937.41
2019-03-01T03:43:49.588Z,100931.36
2019-03-01T03:46:18.155Z,100931.36
2019-03-01T03:48:46.688Z,100931.85
2019-03-01T03:51:15.311Z,100933.66
2019-03-01T03:53:43.936Z,100929.20
2019-03-01T03:56:12.729Z,100934.77
2019-03-01T03:58:41.525Z,100931.18
2019-03-01T04:01:10.206Z,100929.14
2019-03-01T04:03:39.007Z,100934.25
2019-03-01T04:06:07.485Z,100931.72
2019-03-01T04:08:36.160Z,100927.55
2019-03-01T04:11:04.998Z,100932.30
2019-03-01T04:13:33.618Z,100936.67
2019-03-01T04:16:02.288Z,100935.46
2019-03-01T04:18:30.878Z,100936.20
2019-03-01T04:20:59.492Z,100936.41
2019-03-01T04:23:28.104Z,100925.70
2019-03-01T04:25:56.770Z,100928.91
2019-03-01T04:28:25.311Z,100918.02
2019-03-01T04:30:56.524Z,100918.53
2019-03-01T04:33:25.132Z,100914.53
2019-03-01T04:35:53.628Z,100915.84
2019-03-01T04:38:22.181Z,100920.91
2019-03-01T04:40:50.699Z,100925.17
2019-03-01T04:43:19.200Z,100929.96
2019-03-01T04:45:47.739Z,100928.95
2019-03-01T04:48:16.243Z,100925.66
2019-03-01T04:50:44.880Z,100924.10
2019-03-01T04:53:13.474Z,100923.96
2019-03-01T04:55:41.998Z,100923.75
2019-03-01T04:58:10.605Z,100919.38
2019-03-01T05:00:39.228Z,100916.38
2019-03-01T05:03:07.749Z,100929.21
2019-03-01T05:05:36.443Z,100927.58
2019-03-01T05:08:05.672Z,100926.23
2019-03-01T05:10:34.229Z,100924.39
2019-03-01T05:13:02.867Z,100926.74
2019-03-01T05:15:32.657Z,100930.14
2019-03-01T05:18:01.619Z,100929.45
2019-03-01T05:20:31.175Z,100940.20
2019-03-01T05:23:00.062Z,100934.59
2019-03-01T05:25:28.654Z,100940.42
2019-03-01T05:27:57.282Z,100935.75
2019-03-01T05:30:25.893Z,100938.51
2019-03-01T05:32:54.452Z,100938.66
2019-03-01T05:35:22.982Z,100943.56
2019-03-01T05:37:51.664Z,100942.28
2019-03-01T05:40:20.261Z,100945.23
2019-03-01T05:42:48.968Z,100950.72
2019-03-01T05:45:20.437Z,100948.50
2019-03-01T05:47:49.081Z,100945.99
2019-03-01T05:50:17.667Z,100946.26
2019-03-01T05:52:46.228Z,100952.69
2019-03-01T05:55:14.931Z,100946.61
2019-03-01T05:58:21.283Z,100945.27
2019-03-01T06:00:51.271Z,100947.32
2019-03-01T06:03:28.797Z,100952.88
2019-03-01T06:05:57.404Z,100958.44
2019-03-01T06:08:37.858Z,100960.34
2019-03-01T06:11:09.959Z,100962.13
2019-03-01T06:13:50.364Z,100971.40
2019-03-01T06:16:32.112Z,100975.55
2019-03-01T06:19:15.833Z,100982.35
2019-03-01T06:22:14.901Z,100988.42
2019-03-01T06:25:03.299Z,100988.94
2019-03-01T06:27:43.803Z,100991.44
2019-03-01T06:30:36.403Z,100997.06
2019-03-01T06:33:35.590Z,100998.25
2019-03-01T06:36:26.097Z,100994.76
2019-03-01T06:39:35.864Z,101003.13
2019-03-01T06:42:13.988Z,101002.89
2019-03-01T06:44:51.263Z,101003.37
2019-03-01T06:47:44.972Z,100998.81
2019-03-01T06:50:21.257Z,101010.55
2019-03-01T06:52:49.884Z,101016.93
2019-03-01T06:55:30.205Z,101015.11
2019-03-01T06:57:58.817Z,101012.06
2019-03-01T07:00:28.472Z,101004.03
2019-03-01T07:03:01.109Z,101012.38
2019-03-01T07:05:29.751Z,101014.95
2019-03-01T07:07:58.447Z,101016.44
2019-03-01T07:10:27.074Z,101015.42
2019-03-01T07:12:55.681Z,101019.33
2019-03-01T07:15:24.264Z,101022.75
2019-03-01T07:17:52.963Z,101034.88
2019-03-01T07:20:21.399Z,101030.17
2019-03-01T07:22:49.995Z,101034.39
2019-03-01T07:25:18.584Z,101036.54
2019-03-01T07:27:47.239Z,101048.64
2019-03-01T07:30:16.063Z,101052.39
2019-03-01T07:32:44.573Z,101053.84
2019-03-01T07:35:13.208Z,101052.87
2019-03-01T07:37:42.265Z,101053.05
2019-03-01T07:40:12.368Z,101059.56
2019-03-01T07:42:40.961Z,101066.65
2019-03-01T07:45:11.772Z,101066.95
2019-03-01T07:47:40.399Z,101076.48
2019-03-01T07:50:11.742Z,101082.77
2019-03-01T07:52:40.291Z,101082.83
2019-03-01T07:55:10.622Z,101088.25
2019-03-01T07:57:39.287Z,101091.46
2019-03-01T08:00:14.201Z,101094.91
2019-03-01T08:02:45.487Z,101102.95
2019-03-01T08:05:16.316Z,101108.69
2019-03-01T08:07:55.286Z,101121.63
2019-03-01T08:10:20.594Z,101126.75
2019-03-01T08:12:47.613Z,101125.47
2019-03-01T08:15:17.486Z,101137.73
2019-03-01T08:17:46.363Z,101134.84
2019-03-01T08:20:19.635Z,101145.91
2019-03-01T08:22:49.434Z,101135.95
2019-03-01T08:25:23.383Z,101144.08
2019-03-01T08:27:50.494Z,101152.25
2019-03-01T08:30:19.680Z,101151.27
2019-03-01T08:32:48.247Z,101157.63
2019-03-01T08:35:18.404Z,101163.80
2019-03-01T08:37:50.003Z,101163.91
2019-03-01T08:40:18.134Z,101159.20
2019-03-01T08:42:46.751Z,101163.09
2019-03-01T08:45:20.235Z,101174.03
2019-03-01T08:47:49.154Z,101170.48
2019-03-01T08:50:18.121Z,101176.30
2019-03-01T08:52:48.074Z,101174.33
2019-03-01T08:55:18.790Z,101179.05
2019-03-01T08:57:47.322Z,101176.61
2019-03-01T09:00:18.679Z,101194.09
2019-03-01T09:02:47.505Z,101190.34
2019-03-01T09:05:16.093Z,101189.42
2019-03-01T09:07:44.701Z,101200.27
2019-03-01T09:10:15.807Z,101202.48
2019-03-01T09:12:44.553Z,101208.15
2019-03-01T09:15:14.903Z,101205.75
2019-03-01T09:17:43.644Z,101215.28
2019-03-01T09:20:14.141Z,101210.84
2019-03-01T09:22:42.892Z,101208.92
2019-03-01T09:25:13.392Z,101217.84
2019-03-01T09:27:42.080Z,101222.16
2019-03-01T09:30:16.153Z,101231.08
2019-03-01T09:32:44.822Z,101230.57
2019-03-01T09:35:33.728Z,101226.76
2019-03-01T09:38:04.463Z,101233.64
2019-03-01T09:40:32.791Z,101237.74
2019-03-01T09:43:01.376Z,101236.84
2019-03-01T09:45:36.311Z,101242.00
2019-03-01T09:48:00.272Z,101243.05
2019-03-01T09:50:31.634Z,101240.97
2019-03-01T09:52:59.860Z,101248.34
2019-03-01T09:55:28.595Z,101246.61
2019-03-01T09:57:57.257Z,101243.11
2019-03-01T10:00:31.523Z,101259.84
2019-03-01T10:03:00.180Z,101256.61
2019-03-01T10:05:28.819Z,101263.79
2019-03-01T10:07:57.438Z,101265.02
2019-03-01T10:10:34.192Z,101272.30
2019-03-01T10:13:02.932Z,101270.04
2019-03-01T10:15:31.543Z,101276.78
2019-03-01T10:18:00.163Z,101292.33
2019-03-01T10:20:28.768Z,101291.27
2019-03-01T10:22:57.623Z,101287.87
2019-03-01T10:25:26.160Z,101289.47
2019-03-01T10:27:54.846Z,101291.27
2019-03-01T10:30:24.574Z,101300.55
2019-03-01T10:32:59.420Z,101304.25
2019-03-01T10:35:28.195Z,101310.74
2019-03-01T10:37:56.910Z,101310.00
2019-03-01T10:40:29.090Z,101315.28
2019-03-01T10:42:57.901Z,101313.45
2019-03-01T10:45:31.201Z,101311.89
2019-03-01T10:47:59.932Z,101325.67
2019-03-01T10:50:28.691Z,101328.25
2019-03-01T10:52:57.282Z,101327.91
2019-03-01T10:55:26.011Z,101327.77
2019-03-01T10:57:54.850Z,101334.48
2019-03-01T11:00:31.411Z,101327.63
2019-03-01T11:03:00.027Z,101331.55
2019-03-01T11:05:28.736Z,101335.42
2019-03-01T11:07:57.650Z,101334.94
2019-03-01T11:10:37.806Z,101334.80
2019-03-01T11:13:11.523Z,101332.99
2019-03-01T11:15:40.149Z,101342.45
2019-03-01T11:18:09.907Z,101346.17
2019-03-01T11:20:38.640Z,101347.47
2019-03-01T11:23:07.375Z,101350.31
2019-03-01T11:25:35.976Z,101358.90
2019-03-01T11:28:04.610Z,101352.27
2019-03-01T11:30:35.307Z,101355.25
2019-03-01T11:33:03.906Z,101357.32
2019-03-01T11:35:32.596Z,101357.07
2019-03-01T11:38:01.289Z,101354.39
2019-03-01T11:40:34.039Z,101362.22
2019-03-01T11:43:02.887Z,101362.73
2019-03-01T11:45:31.510Z,101370.23
2019-03-01T11:48:00.235Z,101375.18
2019-03-01T11:50:28.834Z,101375.40
2019-03-01T11:52:57.458Z,101378.58
2019-03-01T11:55:26.077Z,101378.95
2019-03-01T11:57:54.707Z,101389.04
2019-03-01T12:00:25.050Z,101391.97
2019-03-01T12:02:53.868Z,101395.51
2019-03-01T12:05:22.745Z,101396.75
2019-03-01T12:07:51.369Z,101406.36
2019-03-01T12:10:32.467Z,101406.57
2019-03-01T12:13:01.026Z,101411.64
2019-03-01T12:15:29.630Z,101419.93
2019-03-01T12:17:58.335Z,101414.78
2019-03-01T12:20:33.611Z,101430.30
2019-03-01T12:23:02.213Z,101431.84
2019-03-01T12:25:30.884Z,101432.06
2019-03-01T12:27:59.925Z,101436.67
2019-03-01T12:30:28.628Z,101437.78
2019-03-01T12:32:57.277Z,101442.94
2019-03-01T12:35:25.967Z,101452.14
2019-03-01T12:37:54.600Z,101447.42
2019-03-01T12:40:30.432Z,101453.17
2019-03-01T12:42:59.218Z,101459.88
2019-03-01T12:45:28.034Z,101464.45
2019-03-01T12:47:56.786Z,101465.44
2019-03-01T12:50:25.490Z,101463.05
2019-03-01T12:52:54.115Z,101470.13
2019-03-01T12:55:24.075Z,101475.56
2019-03-01T12:57:52.706Z,101469.84
2019-03-01T13:00:35.542Z,101471.73
2019-03-01T13:03:05.114Z,101474.18
2019-03-01T13:05:34.589Z,101480.89
2019-03-01T13:08:03.226Z,101478.58
2019-03-01T13:10:36.824Z,101474.75
2019-03-01T13:13:07.987Z,101477.92
2019-03-01T13:15:34.099Z,101472.42
2019-03-01T13:18:03.621Z,101471.59
2019-03-01T13:20:33.902Z,101479.22
2019-03-01T13:23:05.017Z,101474.64
2019-03-01T13:25:33.142Z,101472.12
2019-03-01T13:28:01.729Z,101472.78
2019-03-01T13:30:32.568Z,101476.22
2019-03-01T13:33:02.262Z,101482.79
2019-03-01T13:35:31.201Z,101493.86
2019-03-01T13:37:59.820Z,101490.06
2019-03-01T13:40:28.427Z,101490.23
2019-03-01T13:42:56.984Z,101490.78
2019-03-01T13:45:26.431Z,101494.45
2019-03-01T13:47:55.079Z,101491.33
2019-03-01T13:50:23.800Z,101502.93
2019-03-01T13:52:52.400Z,101489.37
2019-03-01T13:55:23.677Z,101495.88
2019-03-01T13:57:51.698Z,101499.13
2019-03-01T14:00:21.429Z,101510.21
2019-03-01T14:02:50.228Z,101500.31
2019-03-01T14:05:19.123Z,101496.89
2019-03-01T14:07:48.579Z,101499.73
2019-03-01T14:10:28.805Z,101495.84
2019-03-01T14:12:57.427Z,101496.03
2019-03-01T14:15:26.072Z,101487.23
2019-03-01T14:18:00.446Z,101486.02
2019-03-01T14:20:26.623Z,101486.56
2019-03-01T14:22:55.252Z,101492.59
2019-03-01T14:25:23.776Z,101493.91
2019-03-01T14:27:53.052Z,101500.16
2019-03-01T14:30:25.491Z,101509.27
2019-03-01T14:32:57.685Z,101508.95
2019-03-01T14:35:26.934Z,101520.33
2019-03-01T14:37:55.639Z,101524.03
2019-03-01T14:40:24.436Z,101526.34
2019-03-01T14:42:53.176Z,101525.71
2019-03-01T14:45:25.620Z,101530.50
2019-03-01T14:47:54.613Z,101533.64
2019-03-01T14:50:25.227Z,101537.11
2019-03-01T14:52:58.415Z,101521.98
2019-03-01T14:55:35.816Z,101529.54
2019-03-01T14:58:10.448Z,101532.98
2019-03-01T15:00:41.943Z,101533.94
2019-03-01T15:03:36.692Z,101536.97
2019-03-01T15:06:06.226Z,101534.00
2019-03-01T15:08:35.147Z,101527.30
2019-03-01T15:11:08.061Z,101533.76
2019-03-01T15:13:37.044Z,101531.05
2019-03-01T15:16:06.268Z,101535.66
2019-03-01T15:18:35.428Z,101532.63
2019-03-01T15:21:04.313Z,101544.03
2019-03-01T15:23:32.926Z,101542.44
2019-03-01T15:26:01.615Z,101545.48
2019-03-01T15:28:30.281Z,101539.79
2019-03-01T15:30:58.892Z,101547.92
2019-03-01T15:33:27.481Z,101554.09
2019-03-01T15:35:55.975Z,101553.47
2019-03-01T15:38:27.723Z,101552.09
2019-03-01T15:40:54.905Z,101556.36
2019-03-01T15:43:26.561Z,101554.53
2019-03-01T15:45:53.871Z,101568.86
2019-03-01T15:48:22.459Z,101562.59
2019-03-01T15:50:51.071Z,101567.98
2019-03-01T15:53:24.568Z,101576.67
2019-03-01T15:55:51.770Z,101575.55
2019-03-01T15:58:20.432Z,101581.77
2019-03-01T16:00:48.999Z,101580.02
2019-03-01T16:03:17.597Z,101580.84
2019-03-01T16:05:46.191Z,101577.30
2019-03-01T16:08:14.810Z,101592.97
2019-03-01T16:10:43.468Z,101595.19
2019-03-01T16:13:13.287Z,101598.14
2019-03-01T16:15:42.016Z,101601.34
2019-03-01T16:18:10.606Z,101614.17
2019-03-01T16:20:39.194Z,101617.76
2019-03-01T16:23:07.878Z,101612.67
2019-03-01T16:25:36.483Z,101624.28
2019-03-01T16:28:05.056Z,101626.98
2019-03-01T16:30:33.764Z,101637.30
2019-03-01T16:33:02.284Z,101636.82
2019-03-01T16:35:30.845Z,101640.79
2019-03-01T16:38:01.656Z,101644.25
2019-03-01T16:40:31.083Z,101636.44
2019-03-01T16:42:59.918Z,101643.77
2019-03-01T16:45:28.666Z,101644.61
2019-03-01T16:47:57.266Z,101643.03
2019-03-01T16:50:25.857Z,101645.20
2019-03-01T16:52:54.493Z,101646.08
2019-03-01T16:55:27.776Z,101646.11
2019-03-01T16:58:06.269Z,101646.38
2019-03-01T17:00:26.555Z,101645.55
2019-03-01T17:02:58.092Z,101651.80
2019-03-01T17:05:26.723Z,101651.50
2019-03-01T17:07:55.293Z,101656.38
2019-03-01T17:10:26.432Z,101659.63
2019-03-01T17:12:55.848Z,101665.28
2019-03-01T17:15:25.363Z,101660.97
2019-03-01T17:17:54.065Z,101666.34
2019-03-01T17:20:22.705Z,101665.81
2019-03-01T17:22:51.323Z,101670.13
2019-03-01T17:25:19.915Z,101661.23
2019-03-01T17:27:49.632Z,101661.23
2019-03-01T17:30:25.502Z,101663.66
2019-03-01T17:32:54.081Z,101667.45
2019-03-01T17:35:22.764Z,101666.36
2019-03-01T17:37:52.262Z,101675.53
2019-03-01T17:40:20.991Z,101670.69
2019-03-01T17:42:53.257Z,101666.34
2019-03-01T17:45:22.979Z,101666.34
2019-03-01T17:47:51.758Z,101672.00
2019-03-01T17:50:20.465Z,101677.95
2019-03-01T17:52:52.673Z,101675.51
2019-03-01T17:55:26.125Z,101674.98
2019-03-01T17:57:54.681Z,101684.41
2019-03-01T18:00:31.550Z,101688.23
2019-03-01T18:03:00.131Z,101683.09
2019-03-01T18:05:28.765Z,101698.77
2019-03-01T18:07:59.847Z,101711.72
2019-03-01T18:10:28.787Z,101710.91
2019-03-01T18:12:58.017Z,101707.40
2019-03-01T18:15:26.645Z,101712.81
2019-03-01T18:17:55.277Z,101716.84
2019-03-01T18:20:23.886Z,101710.64
2019-03-01T18:22:52.495Z,101717.67
2019-03-01T18:25:22.889Z,101712.00
2019-03-01T18:27:53.027Z,101712.00
2019-03-01T18:30:30.097Z,101713.86
2019-03-01T18:32:58.677Z,101707.64
2019-03-01T18:35:27.456Z,101707.36
2019-03-01T18:37:56.234Z,101707.91
2019-03-01T18:40:24.714Z,101706.57
2019-03-01T18:42:53.384Z,101713.30
2019-03-01T18:45:24.882Z,101716.56
2019-03-01T18:47:53.472Z,101713.86
2019-03-01T18:50:31.234Z,101717.63
2019-03-01T18:53:03.596Z,101718.16
2019-03-01T18:55:32.092Z,101718.16
2019-03-01T18:58:00.675Z,101714.98
2019-03-01T19:00:32.590Z,101721.20
2019-03-01T19:03:04.329Z,101724.41
2019-03-01T19:05:32.564Z,101718.77
2019-03-01T19:08:04.670Z,101718.50
2019-03-01T19:10:31.498Z,101723.36
2019-03-01T19:13:03.692Z,101727.67
2019-03-01T19:15:32.352Z,101730.09
2019-03-01T19:18:00.968Z,101719.81
2019-03-01T19:20:31.614Z,101718.72
2019-03-01T19:23:00.263Z,101723.07
2019-03-01T19:25:28.869Z,101719.25
2019-03-01T19:27:57.528Z,101729.55
2019-03-01T19:30:26.543Z,101731.17
2019-03-01T19:32:55.189Z,101719.83
2019-03-01T19:35:28.579Z,101719.53
2019-03-01T19:37:54.216Z,101714.63
2019-03-01T19:40:24.157Z,101706.23
2019-03-01T19:42:52.704Z,101708.41
2019-03-01T19:45:21.925Z,101708.94
2019-03-01T19:47:50.503Z,101711.08
2019-03-01T19:50:24.702Z,101707.85
2019-03-01T19:52:51.973Z,101710.30
2019-03-01T19:55:20.651Z,101716.51
2019-03-01T19:57:49.247Z,101716.48
2019-03-01T20:00:26.235Z,101711.64
2019-03-01T20:02:54.773Z,101720.86
2019-03-01T20:05:31.988Z,101720.86
2019-03-01T20:07:58.682Z,101722.26
2019-03-01T20:10:27.364Z,101729.28
2019-03-01T20:12:55.973Z,101725.22
2019-03-01T20:15:26.128Z,101720.60
2019-03-01T20:17:54.713Z,101719.54
2019-03-01T20:20:24.545Z,101717.94
2019-03-01T20:22:54.373Z,101718.21
2019-03-01T20:25:23.660Z,101714.96
2019-03-01T20:27:52.371Z,101715.24
2019-03-01T20:30:28.640Z,101717.41
2019-03-01T20:32:53.934Z,101719.55
2019-03-01T20:35:23.213Z,101715.50
2019-03-01T20:37:51.874Z,101715.50
2019-03-01T20:40:22.731Z,101720.39
2019-03-01T20:42:51.038Z,101716.88
2019-03-01T20:45:22.305Z,101723.60
2019-03-01T20:47:53.560Z,101724.44
2019-03-01T20:50:21.312Z,101725.75
2019-03-01T20:52:49.964Z,101728.17
2019-03-01T20:55:19.067Z,101723.56
2019-03-01T20:57:47.690Z,101715.48
2019-03-01T21:00:26.073Z,101733.61
2019-03-01T21:02:54.303Z,101726.58
2019-03-01T21:05:24.873Z,101723.89
2019-03-01T21:07:54.129Z,101724.16
2019-03-01T21:10:24.765Z,101728.48
2019-03-01T21:12:53.401Z,101731.20
2019-03-01T21:15:22.370Z,101730.90
2019-03-01T21:17:52.856Z,101727.41
2019-03-01T21:20:22.170Z,101731.19
2019-03-01T21:22:50.725Z,101732.27
2019-03-01T21:25:20.714Z,101727.94
2019-03-01T21:27:49.420Z,101729.53
2019-03-01T21:30:24.133Z,101727.93
2019-03-01T21:32:53.435Z,101736.84
2019-03-01T21:35:22.910Z,101733.32
2019-03-01T21:37:52.246Z,101727.36
2019-03-01T21:40:20.852Z,101733.85
2019-03-01T21:42:52.807Z,101733.54
2019-03-01T21:45:26.088Z,101735.70
2019-03-01T21:47:54.766Z,101727.33
2019-03-01T21:50:23.344Z,101727.84
2019-03-01T21:52:51.990Z,101724.09
2019-03-01T21:55:24.977Z,101720.04
2019-03-01T21:57:53.330Z,101717.33
2019-03-01T22:00:25.339Z,101720.28
2019-03-01T22:02:54.268Z,101716.48
2019-03-01T22:05:23.053Z,101708.66
2019-03-01T22:07:51.671Z,101724.34
2019-03-01T22:10:20.498Z,101721.87
2019-03-01T22:12:49.959Z,101724.25
2019-03-01T22:15:27.140Z,101720.28
2019-03-01T22:17:56.242Z,101721.37
2019-03-01T22:20:24.752Z,101731.93
2019-03-01T22:22:53.498Z,101733.85
2019-03-01T22:25:22.124Z,101734.92
2019-03-01T22:27:50.741Z,101738.19
2019-03-01T22:30:35.325Z,101739.00
2019-03-01T22:33:03.989Z,101739.80
2019-03-01T22:35:32.516Z,101743.31
2019-03-01T22:38:04.493Z,101744.41
2019-03-01T22:40:31.550Z,101750.34
2019-03-01T22:43:00.172Z,101751.73
2019-03-01T22:45:28.703Z,101744.16
2019-03-01T22:47:57.244Z,101741.72
2019-03-01T22:50:25.899Z,101738.47
2019-03-01T22:52:54.469Z,101742.55
2019-03-01T22:55:23.048Z,101742.55
2019-03-01T22:57:51.516Z,101737.13
2019-03-01T23:00:27.681Z,101737.13
2019-03-01T23:02:56.431Z,101725.23
2019-03-01T23:05:25.121Z,101721.20
2019-03-01T23:07:56.933Z,101723.36
2019-03-01T23:10:24.201Z,101715.23
2019-03-01T23:12:52.797Z,101710.34
2019-03-01T23:15:21.323Z,101718.20
2019-03-01T23:17:50.883Z,101718.72
2019-03-01T23:20:19.338Z,101721.14
2019-03-01T23:22:47.888Z,101717.37
2019-03-01T23:25:16.317Z,101716.56
2019-03-01T23:27:44.951Z,101714.67
2019-03-01T23:30:13.745Z,101710.59
2019-03-01T23:32:42.348Z,101710.58
2019-03-01T23:35:11.144Z,101707.89
2019-03-01T23:37:39.907Z,101708.96
2019-03-01T23:40:08.635Z,101704.36
2019-03-01T23:42:37.368Z,101700.85
2019-03-01T23:45:09.064Z,101704.08
2019-03-01T23:47:38.266Z,101701.37
2019-03-01T23:50:11.038Z,101701.98
2019-03-01T23:52:39.727Z,101702.78
2019-03-01T23:55:08.976Z,101691.98
2019-03-01T23:57:38.055Z,101691.70
